• Join FlightAware (Why Join?)
  • Login
  • US Flag 
02:15PM EDT


 

Airport Tracker/Info


-or-


 

Live Flight TrackerFlight Track Log ✈ UAL3773 ✈ 11-Apr-2013 ✈ KIAD - KMCI

Flight Track Log - Related Links

Times and Time Zones

All times are in EDT time to prevent confusion due to time zone crossing. See the UAL3773 flight status page for this flight to view local times or setup timezone preferences in your user account.

Time Position Orientation Groundspeed Altitude Reporting Facility
EDT Latitude Longitude Course Direction KTS MPH feet Rate Location/Type
04:17PM 38.9333 -77.5667 288° West 224 258 2,400  Level Potomac TRACON
04:18PM 38.9167 -77.6500 256° West 260 299 4,800 2,460 Climbing Potomac TRACON
04:18PM 38.8969 -77.7014 244° Southwest 282 325 6,300 2,820 Climbing Washington Center
04:19PM 38.8581 -77.7775 237° Southwest 271 312 9,200 2,520 Climbing Washington Center
04:20PM 38.8211 -77.8619 241° Southwest 271 312 11,400 2,100 Climbing Washington Center
04:21PM 38.8317 -77.9661 277° West 276 318 13,500 1,500 Climbing Washington Center
04:22PM 38.8431 -78.1724 288° West  Level FlightAware Approximate
04:22PM 38.8439 -78.0864 277° West 325 374 14,500  Level Washington Center
04:23PM 38.8536 -78.2119 276° West 355 409 16,200 1,920 Climbing Washington Center
04:24PM 38.8528 -78.3425 270° West 367 422 18,400 1,860 Climbing Washington Center
04:25PM 38.8519 -78.4706 270° West 367 422 20,000 1,740 Climbing Washington Center
04:26PM 38.8547 -78.6067 272° West 367 422 21,900 1,620 Climbing Washington Center
04:27PM 38.8514 -78.7344 268° West 372 428 23,300 1,320 Climbing Washington Center
04:28PM 38.8483 -78.8542 268° West 367 422 24,600 1,200 Climbing Washington Center
04:29PM 38.8422 -78.9953 267° West 362 417 25,800 1,200 Climbing Washington Center
04:30PM 38.8469 -79.1233 273° West 372 428 27,100 1,080 Climbing Washington Center
04:31PM 38.8428 -79.2644 268° West 390 449 28,000 1,200 Climbing Washington Center
04:32PM 38.8400 -79.4189 269° West 397 457 29,500 1,200 Climbing Washington Center
04:33PM 38.8375 -79.5628 269° West 402 463 30,400 1,020 Climbing Washington Center
04:34PM 38.8350 -79.6986 269° West 402 463 31,600 1,080 Climbing Washington Center
04:35PM 38.8306 -79.8236 267° West 402 463 32,600 840 Climbing Washington Center
04:36PM 38.8256 -79.9619 267° West 402 463 33,300 900 Climbing Washington Center
04:39PM 38.8156 -80.2928 268° West 395 455 35,700 780 Climbing Indianapolis Center
04:40PM 38.8114 -80.4319 268° West 391 450 36,000 120 Climbing Indianapolis Center
04:41PM 38.8072 -80.5747 268° West 402 463 36,000  Level Indianapolis Center
04:42PM 38.8019 -80.7256 267° West 420 483 36,000  Level Indianapolis Center
04:43PM 38.7983 -80.8733 268° West 418 481 36,000  Level Indianapolis Center
04:44PM 38.7933 -81.0206 268° West 414 476 36,000  Level Indianapolis Center
04:45PM 38.7881 -81.1942 268° West 409 471 36,000  Level Indianapolis Center
04:46PM 38.7825 -81.3394 267° West 410 472 36,000  Level Indianapolis Center
04:47PM 38.7767 -81.4956 267° West 411 473 36,000  Level Indianapolis Center
04:48PM 38.7711 -81.6428 267° West 414 476 36,000  Level Indianapolis Center
04:49PM 38.7650 -81.7978 267° West 412 474 36,000  Level Indianapolis Center
04:50PM 38.7592 -81.9425 267° West 409 471 36,000  Level Indianapolis Center
04:51PM 38.7528 -82.0886 267° West 411 473 36,000  Level Indianapolis Center
04:52PM 38.7475 -82.2336 267° West 410 472 36,000  Level Indianapolis Center
04:53PM 38.7422 -82.3789 267° West 408 470 36,000  Level Indianapolis Center
04:54PM 38.7361 -82.5514 267° West 406 467 36,000  Level Indianapolis Center
04:55PM 38.7289 -82.6958 266° West 405 466 36,000  Level Indianapolis Center
04:56PM 38.7228 -82.8406 267° West 406 467 36,000  Level Indianapolis Center
04:57PM 38.7164 -82.9850 267° West 406 467 36,000  Level Indianapolis Center
04:58PM 38.7100 -83.1294 267° West 407 468 36,000  Level Indianapolis Center
04:59PM 38.7031 -83.2847 267° West 402 463 36,000  Level Indianapolis Center
05:00PM 38.6956 -83.4269 266° West 397 457 36,000 -60 Level Indianapolis Center
05:01PM 38.6889 -83.5658 267° West 389 448 35,900  Descending Indianapolis Center
05:02PM 38.6819 -83.7050 266° West 388 447 36,000  Climbing Indianapolis Center
05:03PM 38.6747 -83.8403 266° West 380 437 36,000  Level Indianapolis Center
05:05PM 38.6936 -84.0000 279° West 386 444 36,000  Level Indianapolis Center
05:06PM 38.7144 -84.1369 281° West 388 447 36,000  Level Indianapolis Center
05:07PM 38.7350 -84.2725 281° West 385 443 36,000  Level Indianapolis Center
05:08PM 38.7550 -84.4086 281° West 384 442 36,000  Level Indianapolis Center
05:09PM 38.7767 -84.5539 281° West 389 448 36,000  Level Indianapolis Center
05:10PM 38.7967 -84.6928 281° West 395 455 36,000  Level Indianapolis Center
05:11PM 38.8169 -84.8336 281° West 400 460 36,000  Level Indianapolis Center
05:12PM 38.8397 -84.9908 281° West 404 465 36,000  Level Indianapolis Center
05:13PM 38.8592 -85.1317 280° West 401 461 36,000  Level Indianapolis Center
05:14PM 38.8792 -85.2747 280° West 405 466 36,000  Level Indianapolis Center
05:15PM 38.8992 -85.4189 280° West 408 470 36,000  Level Indianapolis Center
05:16PM 38.9183 -85.5611 280° West 406 467 36,000  Level Indianapolis Center
05:17PM 38.9389 -85.7036 281° West 405 466 36,000  Level Indianapolis Center
05:18PM 38.9617 -85.8744 280° West 404 465 36,000  Level Indianapolis Center
05:19PM 38.9811 -86.0164 280° West 403 464 36,000  Level Indianapolis Center
05:20PM 39.0003 -86.1594 280° West 405 466 36,000  Level Indianapolis Center
05:21PM 39.0189 -86.3025 280° West 406 467 36,000  Level Indianapolis Center
05:22PM 39.0383 -86.4456 280° West 406 467 36,000  Level Indianapolis Center
05:23PM 39.0561 -86.5892 279° West 407 468 36,000  Level Indianapolis Center
05:24PM 39.0789 -86.7628 280° West 410 472 36,000  Level Indianapolis Center
05:25PM 39.0964 -86.9094 279° West 413 475 36,000  Level Indianapolis Center
05:26PM 39.1150 -87.0561 279° West 414 476 36,000  Level Indianapolis Center
05:27PM 39.1328 -87.2011 279° West 412 474 36,000  Level Indianapolis Center
05:28PM 39.1508 -87.3494 279° West 416 479 36,000  Level Indianapolis Center
05:29PM 39.1694 -87.4961 279° West 416 479 36,000  Level Indianapolis Center
05:30PM 39.1858 -87.6431 278° West 414 476 36,000  Level Indianapolis Center
05:31PM 39.2061 -87.8178 279° West 412 474 36,000  Level Indianapolis Center
05:32PM 39.2119 -87.8786 277° West 412 474 36,000  Level Kansas City Center
05:33PM 39.2303 -88.0244 279° West 412 474 36,000  Level Kansas City Center
05:34PM 39.2494 -88.1994 278° West 411 473 36,000  Level Kansas City Center
05:35PM 39.2658 -88.3478 278° West 415 478 36,000  Level Kansas City Center
05:36PM 39.2828 -88.4944 279° West 414 476 36,000  Level Kansas City Center
05:37PM 39.2975 -88.6314 278° West 415 478 36,000  Level Kansas City Center
05:38PM 39.3128 -88.7786 278° West 416 479 36,000  Level Kansas City Center
05:39PM 39.3328 -88.9558 278° West 417 480 36,000  Level Kansas City Center
05:40PM 39.3489 -89.1019 278° West 414 476 36,000  Level Kansas City Center
05:41PM 39.3650 -89.2494 278° West 415 478 36,000  Level Kansas City Center
05:42PM 39.3797 -89.3958 277° West 415 478 36,000  Level Kansas City Center
05:43PM 39.3939 -89.5400 277° West 412 474 36,000  Level Kansas City Center
05:44PM 39.4108 -89.7158 277° West 413 475 36,000  Level Kansas City Center
05:45PM 39.4264 -89.8628 278° West 413 475 36,000  Level Kansas City Center
05:46PM 39.4414 -90.0094 278° West 415 478 36,000  Level Kansas City Center
05:47PM 39.4556 -90.1567 277° West 415 478 36,000  Level Kansas City Center
05:49PM 39.4692 -90.3053 277° West 417 480 36,000  Level Kansas City Center
05:50PM 39.4828 -90.4525 277° West 416 479 36,000  Level Kansas City Center
05:51PM 39.5000 -90.6322 277° West 420 483 36,000  Level Kansas City Center
05:52PM 39.5131 -90.7811 277° West 420 483 36,000  Level Kansas City Center
05:53PM 39.5261 -90.9294 277° West 419 482 36,000  Level Kansas City Center
05:54PM 39.5392 -91.0794 276° West 421 484 36,000  Level Kansas City Center
05:55PM 39.5533 -91.2306 277° West 423 487 36,000  Level Kansas City Center
05:56PM 39.5658 -91.3861 276° West 423 487 36,000  Level Kansas City Center
05:57PM 39.5814 -91.5675 276° West 423 487 36,000  Level Kansas City Center
05:58PM 39.5936 -91.7169 276° West 420 483 36,000  Level Kansas City Center
05:59PM 39.6064 -91.8658 276° West 419 482 36,000  Level Kansas City Center
06:00PM 39.6181 -92.0158 276° West 419 482 36,000  Level Kansas City Center
06:01PM 39.6297 -92.1633 276° West 416 479 36,000  Level Kansas City Center
06:02PM 39.6411 -92.3106 276° West 413 475 36,000 -660 Level Kansas City Center
06:03PM 39.6542 -92.4886 275° West 412 474 34,700 -1,380 Descending Kansas City Center
06:04PM 39.6536 -92.6353 270° West 410 472 33,200 -1,440 Descending Kansas City Center
06:05PM 39.6514 -92.7844 269° West 411 473 31,700 -1,800 Descending Kansas City Center
06:06PM 39.6486 -92.9433 269° West 429 494 29,500 -2,520 Descending Kansas City Center
06:07PM 39.6456 -93.0919 269° West 416 479 26,500 -2,880 Descending Kansas City Center
06:08PM 39.6433 -93.2306 269° West 391 450 23,600 -2,880 Descending Kansas City Center
06:09PM 39.6403 -93.3883 269° West 371 427 20,600 -2,820 Descending Kansas City Center
06:10PM 39.6369 -93.5183 268° West 367 422 17,900 -2,520 Descending Kansas City Center
06:11PM 39.6378 -93.6453 271° West 355 409 15,400 -2,220 Descending Kansas City Center
06:12PM 39.6339 -93.7694 268° West 343 395 13,300 -2,040 Descending Kansas City Center
06:13PM 39.6194 -93.9014 262° West 334 384 11,200 -1,620 Descending Kansas City Center
06:14PM 39.5575 -93.9886 227° Southwest 341 392 10,000 -600 Descending Kansas City Center
06:15PM 39.4828 -94.0903 226° Southwest 347 399 10,000  Level Kansas City Center
06:16PM 39.4208 -94.1767 227° Southwest 341 392 10,000 -600 Level Kansas City Center
06:17PM 39.3644 -94.2533 226° Southwest 263 303 8,800 -1,440 Descending Kansas City Center
06:18PM 39.3231 -94.3208 232° Southwest 252 290 7,100 -1,920 Descending Kansas City Center
06:20PM 39.2831 -94.4039 238° Southwest 244 281 4,900 -1,500 Descending Kansas City Center
06:21PM 39.2694 -94.4775 257° West 223 257 4,000 -840 Descending Kansas City Center
06:22PM 39.2769 -94.5544 277° West 194 223 3,300 -780 Descending Kansas City Center
06:23PM 39.2811 -94.6119 275° West 168 193 2,400 -780 Descending Kansas City Center
06:24PM 39.2847 -94.6531 276° West 125 144 1,700 -720 Descending Kansas City Center
06:25PM 39.2889 -94.7050 276° West 124 143 1,000 -660 Descending Kansas City Center
06:27PM 39.2833 -94.7000 270° West  Level FlightAware Approximate